CheckWX is a tool to help pilots better visualize weather data.  It is not intended as a substitute for an official pre-flight weather briefing.

04:45:12 UTC

KVTI METAR
Vinton Veterans Memorial Arpk Airport
Vinton, Iowa, USA
Current

10 mins ago

KVTI 170435Z AUTO 14004KT 10SM CLR 22/18 A3008 RMK AO2 T02160183
Observed
Sep-17 @ 04:35 UTC
Wind
  • 140° at 4 KTS
Visibility
10 SM
Flight Rules
VFR
Cloud Levels
  • Clear skies
Temperature
22°C / 72°F
Dewpoint
18°C / 64°F
Humidity
78%
Altimeter
30.08" Hg
Pressure
1018.62 hPa
Previous

30 mins ago

KVTI 170415Z AUTO 12005KT 10SM CLR 22/18 A3008 RMK AO2 T02160182
Observed
Sep-17 @ 04:15 UTC
Wind
  • 120° at 5 KTS
Visibility
10 SM
Flight Rules
VFR
Cloud Levels
  • Clear skies
Temperature
22°C / 72°F
Dewpoint
18°C / 64°F
Humidity
78%
Altimeter
30.08" Hg
Pressure
1018.62 hPa
Previous

50 mins ago

KVTI 170355Z AUTO 12004KT 10SM CLR 22/19 A3008 RMK AO2 T02230188
Observed
Sep-17 @ 03:55 UTC
Wind
  • 120° at 4 KTS
Visibility
10 SM
Flight Rules
VFR
Cloud Levels
  • Clear skies
Temperature
22°C / 72°F
Dewpoint
19°C / 66°F
Humidity
83%
Altimeter
30.08" Hg
Pressure
1018.62 hPa